createdAt,value
2023-05-12T00:00:28.473Z,11.27
2023-05-12T00:02:57.884Z,11.33
2023-05-12T00:05:27.388Z,11.32
2023-05-12T00:07:56.726Z,11.37
2023-05-12T00:10:30.613Z,11.29
2023-05-12T00:13:00.265Z,11.31
2023-05-12T00:15:29.575Z,11.30
2023-05-12T00:17:58.967Z,11.30
2023-05-12T00:20:28.670Z,11.30
2023-05-12T00:22:58.478Z,11.29
2023-05-12T00:25:27.964Z,11.26
2023-05-12T00:27:57.282Z,11.18
2023-05-12T00:30:26.642Z,11.11
2023-05-12T00:32:56.328Z,11.05
2023-05-12T00:35:25.662Z,11.04
2023-05-12T00:37:55.123Z,11.00
2023-05-12T00:40:24.456Z,10.96
2023-05-12T00:42:53.764Z,10.94
2023-05-12T00:45:23.817Z,10.92
2023-05-12T00:47:53.897Z,10.93
2023-05-12T00:50:23.608Z,10.92
2023-05-12T00:52:53.481Z,10.90
2023-05-12T00:55:22.888Z,10.90
2023-05-12T00:57:52.548Z,10.87
2023-05-12T01:00:23.694Z,10.88
2023-05-12T01:02:53.179Z,10.88
2023-05-12T01:05:23.099Z,10.85
2023-05-12T01:07:53.019Z,10.82
2023-05-12T01:10:23.380Z,10.82
2023-05-12T01:12:52.987Z,10.86
2023-05-12T01:15:22.813Z,10.90
2023-05-12T01:17:54.739Z,10.88
2023-05-12T01:20:26.588Z,10.88
2023-05-12T01:22:56.672Z,10.90
2023-05-12T01:25:30.066Z,10.88
2023-05-12T01:27:59.556Z,10.88
2023-05-12T01:30:29.921Z,10.86
2023-05-12T01:32:59.714Z,10.86
2023-05-12T01:35:29.992Z,10.90
2023-05-12T01:38:01.099Z,10.99
2023-05-12T01:40:30.873Z,10.93
2023-05-12T01:43:02.140Z,10.96
2023-05-12T01:45:33.537Z,10.95
2023-05-12T01:48:02.999Z,10.98
2023-05-12T01:50:32.599Z,10.97
2023-05-12T01:53:02.761Z,11.04
2023-05-12T01:55:34.514Z,11.00
2023-05-12T01:58:04.019Z,11.01
2023-05-12T02:00:34.240Z,10.99
2023-05-12T02:03:04.097Z,11.02
2023-05-12T02:05:33.720Z,11.01
2023-05-12T02:08:04.342Z,11.04
2023-05-12T02:10:34.000Z,11.03
2023-05-12T02:13:03.336Z,11.02
2023-05-12T02:15:33.672Z,10.97
2023-05-12T02:18:04.576Z,10.90
2023-05-12T02:20:34.568Z,10.88
2023-05-12T02:23:04.465Z,10.96
2023-05-12T02:25:34.743Z,10.79
2023-05-12T02:28:04.951Z,10.76
2023-05-12T02:30:35.124Z,10.80
2023-05-12T02:33:05.972Z,10.78
2023-05-12T02:35:36.080Z,10.67
2023-05-12T02:38:05.380Z,10.65
2023-05-12T02:40:34.958Z,10.64
2023-05-12T02:43:04.468Z,10.62
2023-05-12T02:45:34.104Z,10.61
2023-05-12T02:48:03.482Z,10.49
2023-05-12T02:50:33.130Z,10.60
2023-05-12T02:53:02.402Z,10.46
2023-05-12T02:55:32.142Z,10.37
2023-05-12T02:58:01.525Z,10.36
2023-05-12T03:00:31.130Z,10.35
2023-05-12T03:03:00.700Z,10.32
2023-05-12T03:05:30.719Z,10.30
2023-05-12T03:07:59.992Z,10.28
2023-05-12T03:10:29.440Z,10.22
2023-05-12T03:12:58.740Z,10.26
2023-05-12T03:15:28.561Z,10.26
2023-05-12T03:17:58.086Z,10.25
2023-05-12T03:20:27.801Z,10.19
2023-05-12T03:22:57.136Z,10.14
2023-05-12T03:25:27.118Z,10.21
2023-05-12T03:27:56.458Z,10.19
2023-05-12T03:30:26.224Z,10.19
2023-05-12T03:32:56.235Z,10.19
2023-05-12T03:35:26.173Z,10.15
2023-05-12T03:37:55.761Z,10.15
2023-05-12T03:40:25.289Z,10.19
2023-05-12T03:42:54.876Z,10.13
2023-05-12T03:45:24.205Z,10.10
2023-05-12T03:47:53.734Z,10.13
2023-05-12T03:50:23.434Z,10.11
2023-05-12T03:52:54.363Z,10.13
2023-05-12T03:55:24.012Z,10.13
2023-05-12T03:57:53.388Z,10.11
2023-05-12T04:00:23.048Z,10.15
2023-05-12T04:02:52.496Z,10.15
2023-05-12T04:05:22.161Z,10.19
2023-05-12T04:07:51.636Z,10.19
2023-05-12T04:10:21.654Z,10.21
2023-05-12T04:12:53.054Z,10.21
2023-05-12T04:15:22.527Z,10.26
2023-05-12T04:17:52.550Z,10.24
2023-05-12T04:20:22.402Z,10.26
2023-05-12T04:22:52.041Z,10.28
2023-05-12T04:25:21.499Z,10.31
2023-05-12T04:27:51.018Z,10.30
2023-05-12T04:30:22.187Z,10.31
2023-05-12T04:32:52.089Z,10.33
2023-05-12T04:35:21.997Z,10.35
2023-05-12T04:37:51.793Z,10.36
2023-05-12T04:40:21.653Z,10.40
2023-05-12T04:42:51.833Z,10.39
2023-05-12T04:45:21.522Z,10.41
2023-05-12T04:47:51.412Z,10.44
2023-05-12T04:50:21.293Z,10.45
2023-05-12T04:52:51.226Z,10.48
2023-05-12T04:55:20.900Z,10.50
2023-05-12T04:57:50.946Z,10.54
2023-05-12T05:00:21.304Z,10.56
2023-05-12T05:02:51.058Z,10.57
2023-05-12T05:05:20.810Z,10.61
2023-05-12T05:07:50.392Z,10.60
2023-05-12T05:10:19.849Z,10.64
2023-05-12T05:12:49.221Z,10.65
2023-05-12T05:15:19.985Z,10.71
2023-05-12T05:17:51.321Z,10.73
2023-05-12T05:20:21.924Z,10.77
2023-05-12T05:22:52.311Z,10.82
2023-05-12T05:25:21.759Z,10.84
2023-05-12T05:27:51.368Z,10.85
2023-05-12T05:30:21.042Z,10.87
2023-05-12T05:32:50.549Z,10.93
2023-05-12T05:35:20.407Z,10.90
2023-05-12T05:37:52.770Z,10.93
2023-05-12T05:40:23.407Z,10.88
2023-05-12T05:42:53.196Z,10.91
2023-05-12T05:45:22.757Z,10.85
2023-05-12T05:47:53.384Z,10.90
2023-05-12T05:50:23.579Z,10.96
2023-05-12T05:52:55.264Z,10.96
2023-05-12T05:55:25.296Z,10.98
2023-05-12T05:57:55.301Z,11.00
2023-05-12T06:00:25.029Z,10.98
2023-05-12T06:02:54.869Z,11.03
2023-05-12T06:05:24.510Z,11.10
2023-05-12T06:07:54.015Z,11.05
2023-05-12T06:10:23.948Z,11.06
2023-05-12T06:12:53.241Z,11.08
2023-05-12T06:15:23.476Z,11.13
2023-05-12T06:17:52.916Z,11.16
2023-05-12T06:20:23.375Z,11.20
2023-05-12T06:22:52.967Z,11.25
2023-05-12T06:25:22.776Z,11.24
2023-05-12T06:27:55.545Z,11.33
2023-05-12T06:30:24.528Z,11.39
2023-05-12T06:32:56.265Z,11.43
2023-05-12T06:35:26.176Z,11.47
2023-05-12T06:37:55.549Z,11.53
2023-05-12T06:40:25.116Z,11.65
2023-05-12T06:42:55.338Z,11.70
2023-05-12T06:45:26.333Z,11.78
2023-05-12T06:47:57.721Z,11.88
2023-05-12T06:50:28.802Z,11.89
2023-05-12T06:52:58.126Z,11.88
2023-05-12T06:55:27.535Z,12.03
2023-05-12T06:57:57.115Z,12.07
2023-05-12T07:00:27.926Z,12.21
2023-05-12T07:02:57.825Z,12.24
2023-05-12T07:05:27.867Z,12.26
2023-05-12T07:07:57.305Z,12.31
2023-05-12T07:10:26.826Z,12.29
2023-05-12T07:12:56.186Z,12.31
2023-05-12T07:15:25.557Z,12.46
2023-05-12T07:17:55.959Z,12.48
2023-05-12T07:20:25.622Z,12.65
2023-05-12T07:22:56.548Z,12.77
2023-05-12T07:25:25.910Z,12.87
2023-05-12T07:27:55.397Z,12.99
2023-05-12T07:30:25.603Z,13.06
2023-05-12T07:32:54.967Z,13.05
2023-05-12T07:35:24.481Z,13.10
2023-05-12T07:37:53.778Z,13.09
2023-05-12T07:40:23.133Z,13.22
2023-05-12T07:42:52.976Z,13.17
2023-05-12T07:45:25.782Z,13.32
2023-05-12T07:47:55.120Z,13.48
2023-05-12T07:50:24.651Z,13.58
2023-05-12T07:52:54.457Z,13.51
2023-05-12T07:55:25.654Z,13.64
2023-05-12T07:57:54.956Z,13.64
2023-05-12T08:00:24.683Z,13.83
2023-05-12T08:02:54.681Z,13.88
2023-05-12T08:05:24.522Z,14.13
2023-05-12T08:07:54.080Z,14.40
2023-05-12T08:10:25.356Z,14.83
2023-05-12T08:12:54.761Z,15.15
2023-05-12T08:15:24.101Z,15.49
2023-05-12T08:17:53.998Z,15.45
2023-05-12T08:20:23.382Z,15.51
2023-05-12T08:22:53.066Z,15.09
2023-05-12T08:25:22.698Z,14.94
2023-05-12T08:27:52.067Z,14.94
2023-05-12T08:30:21.583Z,15.27
2023-05-12T08:32:51.200Z,15.62
2023-05-12T08:35:20.983Z,15.36
2023-05-12T08:37:50.628Z,15.45
2023-05-12T08:40:22.456Z,15.48
2023-05-12T08:42:59.288Z,16.00
2023-05-12T08:45:29.524Z,16.11
2023-05-12T08:48:00.201Z,15.57
2023-05-12T08:50:30.671Z,15.94
2023-05-12T08:53:00.399Z,16.32
2023-05-12T08:55:33.600Z,16.03
2023-05-12T08:58:02.361Z,15.97
2023-05-12T09:00:33.743Z,16.42
2023-05-12T09:03:05.262Z,16.40
2023-05-12T09:05:35.588Z,16.42
2023-05-12T09:08:06.346Z,16.47
2023-05-12T09:10:35.966Z,16.12
2023-05-12T09:13:20.866Z,16.50
2023-05-12T09:15:52.109Z,16.41
2023-05-12T09:18:21.888Z,16.26
2023-05-12T09:20:51.172Z,16.07
2023-05-12T09:23:23.057Z,16.08
2023-05-12T09:26:01.953Z,16.28
2023-05-12T09:28:39.939Z,16.36
2023-05-12T09:31:20.651Z,16.62
2023-05-12T09:33:52.308Z,16.67
2023-05-12T09:36:25.329Z,16.65
2023-05-12T09:39:05.923Z,16.82
2023-05-12T09:41:38.766Z,17.21
2023-05-12T09:44:11.699Z,17.22
2023-05-12T09:46:41.095Z,17.29
2023-05-12T09:49:10.556Z,17.24
2023-05-12T09:51:41.496Z,17.44
2023-05-12T09:54:10.754Z,18.18
2023-05-12T09:56:40.487Z,18.33
2023-05-12T09:59:10.655Z,18.15
2023-05-12T10:01:40.164Z,18.30
2023-05-12T10:04:10.365Z,19.29
2023-05-12T10:06:43.506Z,19.30
2023-05-12T10:09:15.952Z,19.42
2023-05-12T10:11:44.568Z,18.88
2023-05-12T10:14:15.443Z,19.12
2023-05-12T10:16:47.163Z,19.35
2023-05-12T10:19:17.010Z,19.66
2023-05-12T10:21:49.207Z,20.27
2023-05-12T10:24:19.155Z,19.85
2023-05-12T10:26:48.431Z,19.29
2023-05-12T10:29:18.341Z,20.05
2023-05-12T10:31:48.366Z,20.24
2023-05-12T10:34:19.146Z,20.83
2023-05-12T10:36:50.279Z,20.69
2023-05-12T10:39:20.160Z,20.77
2023-05-12T10:41:51.086Z,21.75
2023-05-12T10:44:29.004Z,22.23
2023-05-12T10:47:02.620Z,21.27
2023-05-12T10:49:42.291Z,20.72
2023-05-12T10:52:17.127Z,20.53
2023-05-12T10:54:46.417Z,21.70
2023-05-12T10:57:19.383Z,20.78
2023-05-12T10:59:54.546Z,21.46
2023-05-12T11:02:28.165Z,21.85
2023-05-12T11:05:05.292Z,21.64
2023-05-12T11:07:35.958Z,21.16
2023-05-12T11:10:08.037Z,21.02
2023-05-12T11:12:38.016Z,22.19
2023-05-12T11:15:08.810Z,22.87
2023-05-12T11:17:41.882Z,22.70
2023-05-12T11:20:14.172Z,22.48
2023-05-12T11:22:44.289Z,22.38
2023-05-12T11:25:14.862Z,21.25
2023-05-12T11:27:51.364Z,21.12
2023-05-12T11:30:21.409Z,21.05
2023-05-12T11:32:53.934Z,21.67
2023-05-12T11:35:23.507Z,22.55
2023-05-12T11:37:53.560Z,24.21
2023-05-12T11:40:23.860Z,21.83
2023-05-12T11:42:54.771Z,20.78
2023-05-12T11:45:26.853Z,20.85
2023-05-12T11:48:08.880Z,21.24
2023-05-12T11:50:42.802Z,20.12
2023-05-12T11:53:15.119Z,20.17
2023-05-12T11:55:52.829Z,20.17
2023-05-12T11:58:29.975Z,20.16
2023-05-12T12:01:02.595Z,20.00
2023-05-12T12:03:31.362Z,20.16
2023-05-12T12:06:05.573Z,19.48
2023-05-12T12:08:36.786Z,19.03
2023-05-12T12:11:07.587Z,19.84
2023-05-12T12:13:36.919Z,20.44
2023-05-12T12:16:06.780Z,21.48
2023-05-12T12:18:36.394Z,21.38
2023-05-12T12:21:06.310Z,20.70
2023-05-12T12:23:47.687Z,21.02
2023-05-12T12:26:07.000Z,21.60
2023-05-12T12:28:36.657Z,22.16
2023-05-12T12:31:06.113Z,22.98
2023-05-12T12:33:35.457Z,22.54
2023-05-12T12:36:05.778Z,22.66
2023-05-12T12:38:35.295Z,23.27
2023-05-12T12:41:05.320Z,22.59
2023-05-12T12:43:34.844Z,22.72
2023-05-12T12:46:04.163Z,22.53
2023-05-12T12:48:34.077Z,22.61
2023-05-12T12:51:05.280Z,23.22
2023-05-12T12:53:35.794Z,23.03
2023-05-12T12:56:06.172Z,23.58
2023-05-12T12:58:35.621Z,23.95
2023-05-12T13:01:05.282Z,23.72
2023-05-12T13:03:34.957Z,22.92
2023-05-12T13:06:04.539Z,22.45
2023-05-12T13:08:34.154Z,22.05
2023-05-12T13:11:04.191Z,22.16
2023-05-12T13:13:33.698Z,23.26
2023-05-12T13:16:03.663Z,23.68
2023-05-12T13:18:33.145Z,22.92
2023-05-12T13:21:04.724Z,23.19
2023-05-12T13:23:34.044Z,23.61
2023-05-12T13:26:03.891Z,23.49
2023-05-12T13:28:33.607Z,21.96
2023-05-12T13:31:03.033Z,21.52
2023-05-12T13:33:32.715Z,20.30
2023-05-12T13:36:01.959Z,19.52
2023-05-12T13:38:32.274Z,19.63
2023-05-12T13:41:01.655Z,19.72
2023-05-12T13:43:30.934Z,20.18
2023-05-12T13:46:00.748Z,20.61
2023-05-12T13:48:30.135Z,20.66
2023-05-12T13:50:59.471Z,21.19
2023-05-12T13:53:28.850Z,21.81
2023-05-12T13:55:58.126Z,21.16
2023-05-12T13:58:27.659Z,20.71
2023-05-12T14:00:57.003Z,21.19
2023-05-12T14:03:26.753Z,21.47
2023-05-12T14:05:56.165Z,21.73
2023-05-12T14:08:25.757Z,22.15
2023-05-12T14:10:55.347Z,22.67
2023-05-12T14:13:26.250Z,22.80
2023-05-12T14:15:56.003Z,22.18
2023-05-12T14:18:26.251Z,22.76
2023-05-12T14:20:56.050Z,21.92
2023-05-12T14:23:25.304Z,22.18
2023-05-12T14:25:55.596Z,22.38
2023-05-12T14:28:25.152Z,22.32
2023-05-12T14:30:54.915Z,22.73
2023-05-12T14:33:24.243Z,22.48
2023-05-12T14:36:06.000Z,21.96
2023-05-12T14:38:24.911Z,21.26
2023-05-12T14:40:54.222Z,21.93
2023-05-12T14:43:23.472Z,21.74
2023-05-12T14:45:55.013Z,21.92
2023-05-12T14:48:28.084Z,22.00
2023-05-12T14:50:58.221Z,21.57
2023-05-12T14:53:27.544Z,21.70
2023-05-12T14:55:56.992Z,22.17
2023-05-12T14:58:26.606Z,22.27
2023-05-12T15:00:56.459Z,22.21
2023-05-12T15:03:26.080Z,22.46
2023-05-12T15:06:05.712Z,22.21
2023-05-12T15:08:26.428Z,21.79
2023-05-12T15:10:56.082Z,22.16
2023-05-12T15:13:26.005Z,22.06
2023-05-12T15:15:56.779Z,22.27
2023-05-12T15:18:26.571Z,22.59
2023-05-12T15:20:56.253Z,22.79
2023-05-12T15:23:25.699Z,22.39
2023-05-12T15:25:54.971Z,22.25
2023-05-12T15:28:24.542Z,21.79
2023-05-12T15:30:57.536Z,21.99
2023-05-12T15:33:27.265Z,22.07
2023-05-12T15:35:56.536Z,22.23
2023-05-12T15:38:25.960Z,22.82
2023-05-12T15:40:56.066Z,22.81
2023-05-12T15:43:25.645Z,22.68
2023-05-12T15:45:54.997Z,22.79
2023-05-12T15:48:24.758Z,22.72
2023-05-12T15:50:54.084Z,22.16
2023-05-12T15:53:24.033Z,21.76
2023-05-12T15:56:03.960Z,21.95
2023-05-12T15:58:33.840Z,21.81
2023-05-12T16:01:03.236Z,21.77
2023-05-12T16:03:32.642Z,22.08
2023-05-12T16:06:02.209Z,21.88
2023-05-12T16:08:31.920Z,21.94
2023-05-12T16:11:01.889Z,22.26
2023-05-12T16:13:31.570Z,21.91
2023-05-12T16:16:01.556Z,22.02
2023-05-12T16:18:31.932Z,22.37
2023-05-12T16:21:02.038Z,22.15
2023-05-12T16:23:31.632Z,22.17
2023-05-12T16:26:01.042Z,22.73
2023-05-12T16:28:31.935Z,22.80
2023-05-12T16:31:02.395Z,23.15
2023-05-12T16:33:31.928Z,23.82
2023-05-12T16:36:01.426Z,23.75
2023-05-12T16:38:32.674Z,23.12
2023-05-12T16:41:02.161Z,22.50
2023-05-12T16:43:31.546Z,22.19
2023-05-12T16:46:02.240Z,22.89
2023-05-12T16:48:33.459Z,22.88
2023-05-12T16:51:06.419Z,22.04
2023-05-12T16:53:36.472Z,22.39
2023-05-12T16:56:06.259Z,23.36
2023-05-12T16:58:36.216Z,23.59
2023-05-12T17:01:05.921Z,23.14
2023-05-12T17:03:35.341Z,22.48
2023-05-12T17:06:05.187Z,22.27
2023-05-12T17:08:37.358Z,21.60
2023-05-12T17:11:06.724Z,19.49
2023-05-12T17:13:39.090Z,18.70
2023-05-12T17:16:08.640Z,17.56
2023-05-12T17:21:11.657Z,16.68
2023-05-12T17:23:41.303Z,16.12
2023-05-12T17:26:10.825Z,15.23
2023-05-12T17:28:40.098Z,14.79
2023-05-12T17:31:10.929Z,14.48
2023-05-12T17:33:40.271Z,14.32
2023-05-12T17:36:13.313Z,14.04
2023-05-12T17:38:43.812Z,13.92
2023-05-12T17:41:13.669Z,13.60
2023-05-12T17:43:42.984Z,13.61
2023-05-12T17:46:12.532Z,13.61
2023-05-12T17:48:41.824Z,13.57
2023-05-12T17:51:11.296Z,13.54
2023-05-12T17:53:40.680Z,13.54
2023-05-12T17:56:10.421Z,13.59
2023-05-12T17:58:40.110Z,13.65
2023-05-12T18:01:09.489Z,13.69
2023-05-12T18:03:39.740Z,13.67
2023-05-12T18:06:10.927Z,13.58
2023-05-12T18:08:40.862Z,13.43
2023-05-12T18:11:10.198Z,13.47
2023-05-12T18:13:39.494Z,13.46
2023-05-12T18:16:18.259Z,13.54
2023-05-12T18:18:41.431Z,13.54
2023-05-12T18:21:10.792Z,13.53
2023-05-12T18:23:40.085Z,13.58
2023-05-12T18:26:09.563Z,13.61
2023-05-12T18:28:38.905Z,13.58
2023-05-12T18:31:15.883Z,13.66
2023-05-12T18:33:39.718Z,13.74
2023-05-12T18:36:09.759Z,13.74
2023-05-12T18:38:39.116Z,13.80
2023-05-12T18:41:08.796Z,13.77
2023-05-12T18:43:38.035Z,13.76
2023-05-12T18:46:07.448Z,13.77
2023-05-12T18:48:36.701Z,13.83
2023-05-12T18:51:06.846Z,13.79
2023-05-12T18:53:36.112Z,13.72
2023-05-12T18:56:05.604Z,13.65
2023-05-12T18:58:35.180Z,13.55
2023-05-12T19:01:05.299Z,13.45
2023-05-12T19:03:35.473Z,13.44
2023-05-12T19:06:05.217Z,13.49
2023-05-12T19:08:34.681Z,13.53
2023-05-12T19:11:04.770Z,13.52
2023-05-12T19:13:34.482Z,13.51
2023-05-12T19:16:03.890Z,13.51
2023-05-12T19:18:33.782Z,13.46
2023-05-12T19:21:03.798Z,13.48
2023-05-12T19:23:33.141Z,13.45
2023-05-12T19:26:02.798Z,13.47
2023-05-12T19:28:32.169Z,13.43
2023-05-12T19:31:01.847Z,13.41
2023-05-12T19:33:35.221Z,13.40
2023-05-12T19:36:04.769Z,13.43
2023-05-12T19:38:34.244Z,13.33
2023-05-12T19:41:03.620Z,13.31
2023-05-12T19:43:33.139Z,13.37
2023-05-12T19:46:02.813Z,13.34
2023-05-12T19:48:32.821Z,13.33
2023-05-12T19:51:02.378Z,13.35
2023-05-12T19:53:33.626Z,13.36
2023-05-12T19:56:03.068Z,13.37
2023-05-12T19:58:32.538Z,13.27
2023-05-12T20:01:02.047Z,13.46
2023-05-12T20:03:31.746Z,13.43
2023-05-12T20:06:01.298Z,13.49
2023-05-12T20:08:30.779Z,13.46
2023-05-12T20:11:00.556Z,13.54
2023-05-12T20:13:29.869Z,13.57
2023-05-12T20:15:59.391Z,13.58
2023-05-12T20:18:29.089Z,13.57
2023-05-12T20:20:58.860Z,13.59
2023-05-12T20:23:28.549Z,13.59
2023-05-12T20:25:58.276Z,13.62
2023-05-12T20:28:28.566Z,13.58
2023-05-12T20:30:58.852Z,13.59
2023-05-12T20:33:28.724Z,13.60
2023-05-12T20:35:58.187Z,13.55
2023-05-12T20:38:27.616Z,13.47
2023-05-12T20:40:57.249Z,13.49
2023-05-12T20:43:26.685Z,13.47
2023-05-12T20:45:56.593Z,13.43
2023-05-12T20:48:26.061Z,13.43
2023-05-12T20:50:56.784Z,13.43
2023-05-12T20:53:26.230Z,13.47
2023-05-12T20:55:56.268Z,13.59
2023-05-12T20:58:25.737Z,13.57
2023-05-12T21:00:55.257Z,13.53
2023-05-12T21:03:26.903Z,13.48
2023-05-12T21:05:56.774Z,13.48
2023-05-12T21:08:26.228Z,13.44
2023-05-12T21:10:55.948Z,13.47
2023-05-12T21:13:25.394Z,13.43
2023-05-12T21:15:54.999Z,13.47
2023-05-12T21:18:24.477Z,13.39
2023-05-12T21:20:54.297Z,13.27
2023-05-12T21:23:23.694Z,13.30
2023-05-12T21:25:56.195Z,13.26
2023-05-12T21:28:25.514Z,13.22
2023-05-12T21:30:56.242Z,13.15
2023-05-12T21:33:25.548Z,13.14
2023-05-12T21:35:55.008Z,13.21
2023-05-12T21:38:24.388Z,13.26
2023-05-12T21:40:56.159Z,13.18
2023-05-12T21:43:25.999Z,13.20
2023-05-12T21:45:55.835Z,13.18
2023-05-12T21:48:25.634Z,13.24
2023-05-12T21:50:59.935Z,13.33
2023-05-12T21:53:30.356Z,13.21
2023-05-12T21:56:00.329Z,13.40
2023-05-12T21:58:29.763Z,13.37
2023-05-12T22:00:59.928Z,13.47
2023-05-12T22:03:29.589Z,13.51
2023-05-12T22:05:59.282Z,13.60
2023-05-12T22:08:28.828Z,13.61
2023-05-12T22:10:58.301Z,13.65
2023-05-12T22:13:27.984Z,13.70
2023-05-12T22:15:57.968Z,13.75
2023-05-12T22:18:27.546Z,13.76
2023-05-12T22:20:56.972Z,13.76
2023-05-12T22:23:26.845Z,13.82
2023-05-12T22:25:56.680Z,13.74
2023-05-12T22:28:26.226Z,13.67
2023-05-12T22:30:55.584Z,13.58
2023-05-12T22:33:25.338Z,13.52
2023-05-12T22:35:54.866Z,13.55
2023-05-12T22:38:24.911Z,13.49
2023-05-12T22:40:54.203Z,13.48
2023-05-12T22:43:23.896Z,13.44
2023-05-12T22:45:55.257Z,13.37
2023-05-12T22:48:24.762Z,13.37
2023-05-12T22:50:56.741Z,13.29
2023-05-12T22:53:26.357Z,13.23
2023-05-12T22:55:56.029Z,13.13
2023-05-12T22:58:25.413Z,13.05
2023-05-12T23:00:55.308Z,13.05
2023-05-12T23:03:24.954Z,13.03
2023-05-12T23:05:54.325Z,13.04
2023-05-12T23:08:23.603Z,13.01
2023-05-12T23:10:52.964Z,13.02
2023-05-12T23:13:22.595Z,13.00
2023-05-12T23:15:51.922Z,12.97
2023-05-12T23:18:21.572Z,12.95
2023-05-12T23:20:50.940Z,12.90
2023-05-12T23:23:20.443Z,12.85
2023-05-12T23:25:50.015Z,12.88
2023-05-12T23:28:19.369Z,12.86
2023-05-12T23:30:49.101Z,12.87
2023-05-12T23:33:18.478Z,12.87
2023-05-12T23:35:47.898Z,12.84
2023-05-12T23:38:17.269Z,12.87
2023-05-12T23:40:46.674Z,12.80
2023-05-12T23:43:15.977Z,12.75
2023-05-12T23:45:45.397Z,12.71
2023-05-12T23:48:14.714Z,12.71
2023-05-12T23:50:44.027Z,12.71
2023-05-12T23:53:13.608Z,12.69
2023-05-12T23:55:43.683Z,12.58
2023-05-12T23:58:13.004Z,12.70
